Time;durP1;ratioP1;P1;durP2;ratioP2;P2;SDS_P1;SDS_P2;PMS_P1;PMS_P2;Temp;Humidity;BMP_temperature;BMP_pressure;BME280_temperature;BME280_humidity;BME280_pressure;Samples;Min_cycle;Max_cycle;Signal;HPM_P1;HPM_P2
2022/12/27 11:05:22;;;;;;;1.13;0.80;;;18.00;69.50;;;;;;5040772;28;20957;-76
2022/12/27 11:07:48;;;;;;;1.20;0.82;;;17.90;67.60;;;;;;5028682;28;20172;-79
2022/12/27 11:10:17;;;;;;;2.63;0.98;;;18.20;68.90;;;;;;5024320;28;20216;-79
2022/12/27 11:13:03;;;;;;;2.00;0.98;;;18.30;67.50;;;;;;5031207;28;20714;-80
2022/12/27 11:15:39;;;;;;;3.13;1.00;;;18.30;66.40;;;;;;5039163;28;20181;-79
2022/12/27 11:18:19;;;;;;;2.30;1.40;;;18.50;67.50;;;;;;5042580;28;20180;-80
2022/12/27 11:20:51;;;;;;;2.20;1.50;;;19.00;65.50;;;;;;5047300;28;20313;-81
2022/12/27 11:23:23;;;;;;;2.45;1.52;;;18.90;62.90;;;;;;5045384;28;20287;-80
2022/12/27 11:26:41;;;;;;;1.67;0.90;;;18.70;67.40;;;;;;5043973;28;20187;-80
2022/12/27 11:29:15;;;;;;;2.33;1.35;;;19.80;63.60;;;;;;5021673;28;20261;-79
2022/12/27 11:31:46;;;;;;;1.10;1.00;;;19.50;62.80;;;;;;5048529;28;20201;-81
2022/12/27 11:34:42;;;;;;;1.63;1.17;;;19.50;63.90;;;;;;5042046;28;21627;-82
2022/12/27 11:37:14;;;;;;;3.92;1.38;;;18.70;61.40;;;;;;5036816;28;20304;-82
2022/12/27 11:40:10;;;;;;;1.85;1.27;;;18.40;62.90;;;;;;5043289;28;20187;-79
2022/12/27 11:42:41;;;;;;;2.35;1.25;;;18.80;63.40;;;;;;5028302;28;20188;-79
2022/12/27 11:45:10;;;;;;;2.42;1.60;;;19.10;62.80;;;;;;5027567;28;20212;-77
2022/12/27 11:47:54;;;;;;;0.75;0.75;;;19.70;61.20;;;;;;5030247;28;20652;-77
2022/12/27 11:50:57;;;;;;;1.95;1.27;;;19.90;60.00;;;;;;5029863;28;20612;-78
2022/12/27 11:54:03;;;;;;;1.65;0.98;;;20.30;58.60;;;;;;5025930;28;20658;-79
2022/12/27 11:56:31;;;;;;;2.17;1.10;;;20.20;58.80;;;;;;5044061;28;20193;-78
2022/12/27 11:59:18;;;;;;;1.23;1.17;;;20.50;58.90;;;;;;5038389;28;20172;-78
2022/12/27 12:02:06;;;;;;;1.08;1.02;;;21.10;58.50;;;;;;5038584;28;20200;-81
2022/12/27 12:05:01;;;;;;;1.17;1.05;;;21.60;57.20;;;;;;5038833;28;20201;-81
2022/12/27 12:07:30;;;;;;;1.95;0.98;;;21.90;56.40;;;;;;5035556;28;20172;-82
2022/12/27 12:10:17;;;;;;;1.48;1.30;;;21.30;55.30;;;;;;5042595;28;20169;-82
2022/12/27 12:13:01;;;;;;;1.50;1.40;;;21.00;56.70;;;;;;5043743;28;20172;-81
2022/12/27 12:15:46;;;;;;;1.73;1.45;;;21.70;55.70;;;;;;5038887;28;20191;-84
2022/12/27 12:18:26;;;;;;;1.52;1.00;;;22.20;55.20;;;;;;5024909;28;20272;-83
2022/12/27 12:21:16;;;;;;;1.70;0.80;;;22.60;54.00;;;;;;5033227;28;20201;-81
2022/12/27 12:23:44;;;;;;;2.53;1.30;;;22.40;53.60;;;;;;5009567;28;20198;-78
2022/12/27 12:26:18;;;;;;;1.50;0.98;;;22.10;54.20;;;;;;5012078;28;20193;-78
2022/12/27 12:29:15;;;;;;;2.38;1.25;;;22.20;54.00;;;;;;5013866;28;20272;-78
2022/12/27 12:32:15;;;;;;;2.83;1.60;;;22.20;54.40;;;;;;5012183;28;20211;-77
2022/12/27 12:35:05;;;;;;;1.35;0.88;;;22.10;52.90;;;;;;5012636;28;20263;-77
2022/12/27 12:37:44;;;;;;;1.70;1.20;;;20.50;54.40;;;;;;5012740;28;20185;-78
2022/12/27 12:40:34;;;;;;;1.98;1.10;;;18.60;57.00;;;;;;5016702;28;20217;-78
2022/12/27 12:43:20;;;;;;;1.08;0.93;;;17.20;60.20;;;;;;5010404;28;20192;-79
2022/12/27 12:46:01;;;;;;;1.60;1.00;;;15.90;63.40;;;;;;5009972;28;20205;-78
2022/12/27 12:48:40;;;;;;;1.55;1.00;;;15.50;64.10;;;;;;5010767;28;20177;-78
2022/12/27 12:51:45;;;;;;;1.50;1.20;;;15.60;65.00;;;;;;5008702;28;20203;-78
2022/12/27 12:54:19;;;;;;;2.58;1.60;;;15.60;66.30;;;;;;5011654;28;20203;-76
2022/12/27 12:57:15;;;;;;;1.60;1.50;;;15.90;65.80;;;;;;5011507;28;20196;-76
2022/12/27 13:00:07;;;;;;;1.33;1.20;;;15.80;65.90;;;;;;5012374;28;20181;-76
2022/12/27 13:03:11;;;;;;;2.05;1.08;;;15.40;66.20;;;;;;5012482;28;20272;-76
2022/12/27 13:06:24;;;;;;;1.30;1.00;;;15.30;66.70;;;;;;5019217;28;20288;-76
2022/12/27 13:09:23;;;;;;;1.30;1.20;;;15.00;67.00;;;;;;5012437;28;20197;-76
2022/12/27 13:12:18;;;;;;;0.93;0.77;;;14.50;68.00;;;;;;5012930;28;20201;-76
2022/12/27 13:15:15;;;;;;;1.75;1.08;;;14.20;68.90;;;;;;5016370;28;20193;-76
2022/12/27 13:17:53;;;;;;;1.40;1.13;;;14.10;70.50;;;;;;5012095;28;20225;-76
2022/12/27 13:20:31;;;;;;;0.98;0.93;;;13.60;71.30;;;;;;5013761;28;20210;-76
2022/12/27 13:23:32;;;;;;;1.50;0.55;;;13.20;72.70;;;;;;5008555;28;20189;-76
2022/12/27 13:26:26;;;;;;;1.65;1.13;;;12.80;73.60;;;;;;5020468;28;20282;-76
2022/12/27 13:29:38;;;;;;;1.52;1.05;;;12.30;75.80;;;;;;5012079;28;20994;-76
2022/12/27 13:32:50;;;;;;;2.67;1.20;;;12.00;76.40;;;;;;5015713;28;20205;-76
2022/12/27 13:35:27;;;;;;;1.27;1.15;;;11.60;78.90;;;;;;5013542;28;20345;-77
2022/12/27 13:38:15;;;;;;;0.80;0.80;;;11.50;80.00;;;;;;5030100;28;20218;-76
2022/12/27 13:40:49;;;;;;;1.95;1.50;;;11.40;79.80;;;;;;5017036;28;20205;-76
2022/12/27 13:43:42;;;;;;;1.63;1.17;;;11.00;81.90;;;;;;5012672;28;20208;-76
2022/12/27 13:46:20;;;;;;;1.17;1.08;;;10.80;83.20;;;;;;5010063;28;20280;-76
2022/12/27 13:49:06;;;;;;;2.08;1.58;;;10.60;83.10;;;;;;5011044;28;20203;-76
2022/12/27 13:51:41;;;;;;;1.55;1.15;;;10.30;84.50;;;;;;5008174;28;20205;-76
2022/12/27 13:54:33;;;;;;;2.15;1.20;;;10.10;84.70;;;;;;5010546;28;20185;-76
2022/12/27 13:57:10;;;;;;;1.98;1.75;;;9.90;86.50;;;;;;5010178;28;20656;-75
2022/12/27 13:59:56;;;;;;;2.60;1.42;;;9.50;88.20;;;;;;5007366;28;20192;-75
2022/12/27 14:02:31;;;;;;;2.10;1.08;;;9.30;90.00;;;;;;5005143;28;20188;-75
2022/12/27 14:05:34;;;;;;;1.52;1.42;;;9.10;90.00;;;;;;5015307;28;20216;-74
2022/12/27 14:08:09;;;;;;;1.30;1.30;;;8.90;90.80;;;;;;5010841;28;20225;-75
2022/12/27 14:10:47;;;;;;;3.35;1.50;;;8.70;91.90;;;;;;5006002;28;20215;-75
2022/12/27 14:13:21;;;;;;;1.60;1.27;;;8.60;92.00;;;;;;5012150;28;20268;-75
2022/12/27 14:16:09;;;;;;;2.88;2.15;;;8.50;92.80;;;;;;5009917;28;20208;-75
2022/12/27 14:18:50;;;;;;;5.45;2.47;;;8.30;93.70;;;;;;5011108;28;20192;-76
2022/12/27 14:21:18;;;;;;;3.50;2.60;;;8.20;94.80;;;;;;5008136;28;20204;-75
2022/12/27 14:23:53;;;;;;;6.90;3.97;;;8.10;95.10;;;;;;5007161;28;20209;-75
2022/12/27 14:26:33;;;;;;;9.82;4.47;;;7.90;96.40;;;;;;5011269;28;20687;-75
2022/12/27 14:29:17;;;;;;;7.47;2.85;;;7.90;96.50;;;;;;5010196;28;20187;-75
2022/12/27 14:32:06;;;;;;;2.17;2.00;;;7.80;96.80;;;;;;5010122;28;20630;-76
2022/12/27 14:34:56;;;;;;;1.80;1.30;;;7.60;98.10;;;;;;5023193;28;20181;-75
2022/12/27 14:37:28;;;;;;;2.00;1.80;;;7.50;98.60;;;;;;5015389;28;20636;-75
2022/12/27 14:40:14;;;;;;;3.85;1.92;;;7.40;99.90;;;;;;5014364;28;20180;-75
2022/12/27 14:43:17;;;;;;;2.17;1.50;;;7.20;99.90;;;;;;5010586;28;20594;-76
2022/12/27 14:45:57;;;;;;;1.52;1.42;;;7.20;99.90;;;;;;5011089;28;20185;-77
2022/12/27 14:48:32;;;;;;;1.75;1.13;;;7.20;99.90;;;;;;5011751;28;20185;-75
2022/12/27 14:51:25;;;;;;;4.68;1.65;;;7.20;99.90;;;;;;5009665;28;20200;-76
2022/12/27 14:53:56;;;;;;;1.70;1.60;;;7.00;99.90;;;;;;5026948;28;20239;-75
2022/12/27 14:56:35;;;;;;;3.95;1.67;;;7.00;99.90;;;;;;5013580;28;20235;-76
2022/12/27 14:59:26;;;;;;;2.42;1.90;;;6.90;99.90;;;;;;5011846;28;20180;-77
2022/12/27 15:02:07;;;;;;;5.65;1.50;;;6.70;99.90;;;;;;5018527;28;20280;-77
2022/12/27 15:04:33;;;;;;;1.48;1.35;;;6.70;99.90;;;;;;5011641;28;20228;-78
2022/12/27 15:07:22;;;;;;;3.00;1.38;;;6.60;99.90;;;;;;5016504;28;20276;-77
2022/12/27 15:10:21;;;;;;;1.38;1.27;;;6.70;99.90;;;;;;5009379;28;20279;-78
2022/12/27 15:13:03;;;;;;;2.28;1.42;;;6.60;99.90;;;;;;5017432;28;20520;-77
2022/12/27 15:15:53;;;;;;;2.25;1.98;;;6.60;99.90;;;;;;5020243;28;21211;-77
2022/12/27 15:18:57;;;;;;;1.85;1.80;;;6.50;99.90;;;;;;5011538;28;20707;-78
2022/12/27 15:21:37;;;;;;;2.17;1.98;;;6.40;99.90;;;;;;5012965;28;20216;-77
2022/12/27 15:24:29;;;;;;;2.78;2.30;;;6.30;99.90;;;;;;5012378;28;20208;-77
2022/12/27 15:27:19;;;;;;;4.00;3.13;;;6.00;99.90;;;;;;5011510;28;20501;-76
2022/12/27 15:30:04;;;;;;;1.30;1.30;;;6.00;99.90;;;;;;5012557;28;20185;-76
2022/12/27 15:32:48;;;;;;;1.67;1.55;;;5.90;99.90;;;;;;5005294;28;20587;-76
2022/12/27 15:35:48;;;;;;;2.10;1.88;;;6.00;99.90;;;;;;5014315;28;20236;-76
2022/12/27 15:38:34;;;;;;;1.58;1.48;;;5.90;99.90;;;;;;5013584;28;20247;-76
2022/12/27 15:41:06;;;;;;;1.95;1.80;;;5.90;99.90;;;;;;5011749;28;20196;-76
2022/12/27 15:44:03;;;;;;;3.10;1.83;;;5.80;99.90;;;;;;5011758;28;20207;-77
2022/12/27 15:46:57;;;;;;;1.73;1.63;;;5.80;99.90;;;;;;5012063;28;20578;-78
2022/12/27 15:49:53;;;;;;;1.40;1.30;;;5.70;99.90;;;;;;5013709;28;20546;-77
2022/12/27 15:52:26;;;;;;;4.68;1.60;;;5.70;99.90;;;;;;5012776;28;20177;-77
2022/12/27 15:55:14;;;;;;;3.08;1.50;;;5.50;99.90;;;;;;5012148;28;20223;-78
2022/12/27 15:58:08;;;;;;;1.80;1.60;;;5.40;99.90;;;;;;5012471;28;20189;-78
2022/12/27 16:00:34;;;;;;;3.30;1.80;;;5.40;99.90;;;;;;5010078;28;20291;-78
2022/12/27 16:03:01;;;;;;;4.07;2.00;;;5.40;99.90;;;;;;5012987;28;20273;-78
2022/12/27 16:05:42;;;;;;;1.67;1.58;;;5.30;99.90;;;;;;5012862;28;20563;-79
2022/12/27 16:08:07;;;;;;;3.65;2.22;;;5.10;99.90;;;;;;5015945;28;20656;-79
2022/12/27 16:10:47;;;;;;;2.30;2.20;;;5.10;99.90;;;;;;5012685;28;20251;-78
2022/12/27 16:13:30;;;;;;;1.42;1.38;;;5.10;99.90;;;;;;5015661;28;20586;-78
2022/12/27 16:15:57;;;;;;;1.98;1.88;;;5.10;99.90;;;;;;5031941;28;20208;-78
2022/12/27 16:18:22;;;;;;;2.38;2.17;;;5.00;99.90;;;;;;5014985;28;20177;-77
2022/12/27 16:20:55;;;;;;;3.75;2.55;;;5.00;99.90;;;;;;5017790;28;20197;-79
2022/12/27 16:23:24;;;;;;;2.70;2.50;;;4.90;99.90;;;;;;5015371;28;20204;-78
2022/12/27 16:25:59;;;;;;;3.25;2.28;;;4.80;99.90;;;;;;5018442;28;20182;-77
2022/12/27 16:28:27;;;;;;;2.10;2.00;;;4.70;99.90;;;;;;5031241;28;20187;-78
2022/12/27 16:30:56;;;;;;;4.43;2.35;;;4.70;99.90;;;;;;5017730;28;20263;-77
2022/12/27 16:33:25;;;;;;;2.38;2.15;;;4.70;99.90;;;;;;5019429;28;20177;-77
2022/12/27 16:36:06;;;;;;;2.20;2.00;;;4.70;99.90;;;;;;5018176;28;20177;-77
2022/12/27 16:38:32;;;;;;;1.85;1.70;;;4.60;99.90;;;;;;5011325;28;20191;-80
2022/12/27 16:41:38;;;;;;;3.78;2.35;;;4.60;99.90;;;;;;5019574;28;20208;-77
2022/12/27 16:44:22;;;;;;;3.03;1.92;;;4.60;99.90;;;;;;5012106;28;20259;-75
2022/12/27 16:47:06;;;;;;;2.80;2.60;;;4.60;99.90;;;;;;5023560;28;20202;-75
2022/12/27 16:49:54;;;;;;;2.45;2.22;;;4.50;99.90;;;;;;5029160;28;20592;-76
2022/12/27 16:52:46;;;;;;;3.00;2.67;;;4.50;99.90;;;;;;5018365;28;20213;-76
2022/12/27 16:55:52;;;;;;;3.10;2.80;;;4.30;99.90;;;;;;5015502;28;20304;-76
2022/12/27 16:58:30;;;;;;;3.83;2.35;;;4.20;99.90;;;;;;5014267;28;20195;-76
2022/12/27 17:00:58;;;;;;;3.63;3.03;;;4.10;99.90;;;;;;5029660;28;20312;-76
2022/12/27 17:03:35;;;;;;;3.08;2.78;;;4.00;99.90;;;;;;5013252;28;20220;-74
2022/12/27 17:06:20;;;;;;;3.63;2.30;;;3.90;99.90;;;;;;5014479;28;20177;-74
2022/12/27 17:09:07;;;;;;;4.70;1.95;;;3.80;99.90;;;;;;5021181;28;20275;-74
2022/12/27 17:11:51;;;;;;;4.90;2.08;;;3.80;99.90;;;;;;5030331;28;20208;-75
2022/12/27 17:14:24;;;;;;;2.40;2.20;;;3.70;99.90;;;;;;5013737;28;20757;-74
2022/12/27 17:16:52;;;;;;;2.38;2.00;;;3.70;99.90;;;;;;5014770;28;20234;-74
2022/12/27 17:19:19;;;;;;;2.25;2.05;;;3.60;99.90;;;;;;5013638;28;20192;-74
2022/12/27 17:21:52;;;;;;;2.35;2.15;;;3.60;99.90;;;;;;5015087;28;20561;-74
2022/12/27 17:24:21;;;;;;;2.70;2.50;;;3.50;99.90;;;;;;5013597;28;20232;-74
2022/12/27 17:26:58;;;;;;;3.70;2.88;;;3.40;99.90;;;;;;5020705;28;20210;-78
2022/12/27 17:30:10;;;;;;;4.53;4.00;;;3.30;99.90;;;;;;5028957;28;20682;-74
2022/12/27 17:32:57;;;;;;;4.00;3.60;;;3.20;99.90;;;;;;5013223;28;20193;-74
2022/12/27 17:35:31;;;;;;;5.70;4.57;;;3.10;99.90;;;;;;5011507;28;20538;-74
2022/12/27 17:38:13;;;;;;;5.68;5.00;;;3.00;99.90;;;;;;5013760;28;20192;-74
2022/12/27 17:41:06;;;;;;;4.90;4.50;;;2.90;99.90;;;;;;5012201;28;20228;-75
2022/12/27 17:47:15;;;;;;;8.43;4.35;;;2.80;99.90;;;;;;5009937;28;20184;-73
2022/12/27 17:49:41;;;;;;;4.82;4.10;;;2.70;99.90;;;;;;5013605;28;20177;-73
2022/12/27 17:58:06;;;;;;;5.40;4.47;;;2.50;99.90;;;;;;5013189;28;20180;-74
2022/12/27 18:00:48;;;;;;;4.78;3.97;;;2.40;99.90;;;;;;5015360;28;20205;-74
2022/12/27 18:03:15;;;;;;;5.03;4.03;;;2.30;99.90;;;;;;5013519;28;20609;-74
2022/12/27 18:05:44;;;;;;;6.07;5.05;;;2.30;99.90;;;;;;5013924;28;20197;-74
2022/12/27 18:08:27;;;;;;;5.80;5.30;;;2.30;99.90;;;;;;5009315;28;20195;-74
2022/12/27 18:10:54;;;;;;;6.70;5.15;;;2.20;99.90;;;;;;5009828;28;20224;-74
2022/12/27 18:13:24;;;;;;;7.20;4.25;;;2.10;99.90;;;;;;5016520;28;20179;-74
2022/12/27 18:15:51;;;;;;;10.38;6.80;;;2.10;99.90;;;;;;5010019;28;20201;-75
2022/12/27 18:18:34;;;;;;;9.60;6.47;;;2.00;99.90;;;;;;5015338;28;20186;-78
2022/12/27 18:21:02;;;;;;;11.23;6.93;;;1.90;99.90;;;;;;5010156;28;20232;-74
2022/12/27 18:23:37;;;;;;;10.00;8.32;;;1.90;99.90;;;;;;5019769;28;20208;-75
2022/12/27 18:26:10;;;;;;;9.63;7.45;;;1.90;99.90;;;;;;5014607;28;20255;-74
2022/12/27 18:28:37;;;;;;;9.25;7.60;;;1.80;99.90;;;;;;5014604;28;20260;-73
2022/12/27 18:31:24;;;;;;;11.80;7.88;;;1.80;99.90;;;;;;5016362;28;20197;-74
2022/12/27 18:34:05;;;;;;;7.93;6.63;;;1.70;99.90;;;;;;5010412;28;20173;-74
2022/12/27 18:37:10;;;;;;;8.02;6.78;;;1.70;99.90;;;;;;5024502;28;20182;-74
2022/12/27 18:39:49;;;;;;;7.60;6.85;;;1.70;99.90;;;;;;5009664;28;20665;-73
2022/12/27 18:42:29;;;;;;;10.20;6.75;;;1.70;99.90;;;;;;5013725;28;20559;-73
2022/12/27 18:45:14;;;;;;;9.10;7.85;;;1.70;99.90;;;;;;5007567;28;20546;-73
2022/12/27 18:47:46;;;;;;;8.60;6.68;;;1.60;99.90;;;;;;5012463;28;20849;-73
2022/12/27 18:50:20;;;;;;;10.70;6.43;;;1.40;99.90;;;;;;5008411;28;20212;-73
2022/12/27 18:52:46;;;;;;;7.03;5.35;;;1.40;99.90;;;;;;5004002;28;20185;-74
2022/12/27 18:55:15;;;;;;;8.25;5.20;;;1.30;99.90;;;;;;5010628;28;20185;-73
2022/12/27 18:57:40;;;;;;;8.00;5.40;;;1.40;99.90;;;;;;5008399;28;20184;-74
2022/12/27 19:00:12;;;;;;;10.32;6.03;;;1.30;99.90;;;;;;5010280;28;20200;-78
2022/12/27 19:02:38;;;;;;;8.25;5.65;;;1.30;99.90;;;;;;5012458;28;20244;-77
2022/12/27 19:05:13;;;;;;;8.20;5.18;;;1.30;99.90;;;;;;5019498;28;20228;-76
2022/12/27 19:07:40;;;;;;;8.23;5.97;;;1.30;99.90;;;;;;5010156;28;20718;-77
2022/12/27 19:10:16;;;;;;;15.00;10.43;;;1.30;99.90;;;;;;5011356;28;20204;-76
2022/12/27 19:12:43;;;;;;;8.68;7.13;;;1.20;99.90;;;;;;5021718;28;20172;-77
2022/12/27 19:15:26;;;;;;;9.13;6.75;;;1.20;99.90;;;;;;5011053;28;20185;-77
2022/12/27 19:17:59;;;;;;;11.70;6.88;;;1.10;99.90;;;;;;5022062;28;20185;-77
2022/12/27 19:20:29;;;;;;;10.32;7.03;;;1.10;99.90;;;;;;5014899;28;20312;-73
2022/12/27 19:22:56;;;;;;;8.45;7.47;;;1.10;99.90;;;;;;5013424;28;20185;-74
2022/12/27 19:25:25;;;;;;;9.00;7.40;;;1.10;99.90;;;;;;5017634;28;20668;-73
2022/12/27 19:28:08;;;;;;;11.10;7.40;;;1.10;99.90;;;;;;5021251;28;20252;-73
2022/12/27 19:30:42;;;;;;;11.27;8.43;;;0.90;99.90;;;;;;5024119;28;20224;-73
2022/12/27 19:33:19;;;;;;;11.93;8.32;;;0.90;99.90;;;;;;5012222;28;20670;-73
2022/12/27 19:35:44;;;;;;;12.52;9.25;;;0.90;99.90;;;;;;5017758;28;20264;-73
2022/12/27 19:38:22;;;;;;;15.80;9.65;;;0.80;99.90;;;;;;5020122;28;20200;-73
2022/12/27 19:40:51;;;;;;;10.98;9.55;;;0.80;99.90;;;;;;5014982;28;20680;-73
2022/12/27 19:43:17;;;;;;;15.43;11.77;;;0.80;99.90;;;;;;5016354;28;20235;-70
2022/12/27 19:45:43;;;;;;;15.98;11.77;;;0.90;99.90;;;;;;5016996;28;20525;-71
2022/12/27 19:48:09;;;;;;;17.23;12.40;;;0.90;99.90;;;;;;5017683;28;20235;-70
2022/12/27 19:50:49;;;;;;;19.88;13.27;;;0.90;99.90;;;;;;5015297;28;20205;-70
2022/12/27 19:53:17;;;;;;;19.40;13.27;;;0.90;99.90;;;;;;5016471;28;20220;-71
2022/12/27 19:55:43;;;;;;;11.57;10.23;;;0.80;99.90;;;;;;5015796;28;20200;-71
2022/12/27 19:58:19;;;;;;;16.10;8.90;;;0.70;99.90;;;;;;5015442;28;20188;-71
2022/12/27 20:00:45;;;;;;;12.60;9.07;;;0.70;99.90;;;;;;5011536;28;20200;-71
2022/12/27 20:03:10;;;;;;;10.95;8.50;;;0.70;99.90;;;;;;5018057;28;20279;-71
2022/12/27 20:05:36;;;;;;;10.48;8.63;;;0.60;99.90;;;;;;5015296;28;20715;-71
2022/12/27 20:08:05;;;;;;;11.20;8.20;;;0.60;99.90;;;;;;5018107;28;20197;-71
2022/12/27 20:10:31;;;;;;;14.52;9.15;;;0.60;99.90;;;;;;5012479;28;20197;-71
2022/12/27 20:12:57;;;;;;;12.18;7.97;;;0.50;99.90;;;;;;5015744;28;20173;-71
2022/12/27 20:15:24;;;;;;;14.13;10.35;;;0.50;99.90;;;;;;5013870;28;20181;-72
2022/12/27 20:17:50;;;;;;;13.57;9.60;;;0.40;99.90;;;;;;5015787;28;20207;-72
2022/12/27 20:20:16;;;;;;;11.20;8.90;;;0.30;99.90;;;;;;5015769;28;20203;-71
2022/12/27 20:22:41;;;;;;;14.45;9.70;;;0.30;99.90;;;;;;5014459;28;20181;-71
2022/12/27 20:25:07;;;;;;;14.38;9.18;;;0.30;99.90;;;;;;5013538;28;20262;-71
2022/12/27 20:27:34;;;;;;;12.70;8.95;;;0.30;99.90;;;;;;5012839;28;20185;-71
2022/12/27 20:30:00;;;;;;;15.25;9.95;;;0.30;99.90;;;;;;5012573;28;20181;-71
2022/12/27 20:32:25;;;;;;;14.88;9.75;;;0.40;99.90;;;;;;5012179;28;20181;-71
2022/12/27 20:34:51;;;;;;;14.68;9.38;;;0.30;99.90;;;;;;5015647;28;20187;-71
2022/12/27 20:37:17;;;;;;;12.05;8.82;;;0.20;99.90;;;;;;5015401;28;20231;-71
2022/12/27 20:39:43;;;;;;;12.38;10.23;;;0.20;99.90;;;;;;5015046;28;20199;-71
2022/12/27 20:42:09;;;;;;;12.02;8.52;;;0.20;99.90;;;;;;5014258;28;20196;-71
2022/12/27 20:44:34;;;;;;;13.27;8.88;;;0.20;99.90;;;;;;5016167;28;20204;-71
2022/12/27 20:47:00;;;;;;;12.60;8.93;;;0.10;99.90;;;;;;5016019;28;20226;-71
2022/12/27 20:49:26;;;;;;;12.75;10.02;;;0.10;99.90;;;;;;5011776;28;20334;-71
2022/12/27 20:51:51;;;;;;;13.98;9.27;;;0.00;99.90;;;;;;5013755;28;20242;-71
2022/12/27 20:54:17;;;;;;;14.25;10.57;;;0.00;99.90;;;;;;5015674;28;20185;-71
2022/12/27 20:56:43;;;;;;;12.52;10.90;;;0.00;99.90;;;;;;5015021;28;20281;-70
2022/12/27 20:59:09;;;;;;;12.95;9.32;;;-0.10;99.90;;;;;;5016867;28;20186;-70
2022/12/27 21:01:34;;;;;;;11.00;9.40;;;-0.10;99.90;;;;;;5012632;28;20227;-70
2022/12/27 21:04:00;;;;;;;13.95;9.50;;;-0.10;99.90;;;;;;5014712;28;20205;-71
2022/12/27 21:06:27;;;;;;;15.07;11.13;;;-0.10;99.90;;;;;;5015173;28;20177;-71
2022/12/27 21:08:53;;;;;;;12.23;9.88;;;-0.10;99.90;;;;;;5011730;28;20208;-71
2022/12/27 21:11:21;;;;;;;15.48;10.02;;;-0.10;99.90;;;;;;5013304;28;20204;-70
2022/12/27 21:13:47;;;;;;;12.48;10.63;;;-0.20;99.90;;;;;;5014004;28;20177;-71
2022/12/27 21:16:33;;;;;;;15.13;10.15;;;-0.30;99.90;;;;;;5014002;28;20264;-70
2022/12/27 21:19:03;;;;;;;12.93;9.55;;;-0.20;99.90;;;;;;5011996;28;20224;-71
2022/12/27 21:21:30;;;;;;;14.67;10.67;;;-0.20;99.90;;;;;;5014475;28;20205;-70
2022/12/27 21:23:57;;;;;;;12.35;9.23;;;-0.20;99.90;;;;;;5013282;28;20683;-70
2022/12/27 21:26:29;;;;;;;12.93;9.40;;;-0.20;99.90;;;;;;5011006;28;20558;-70
2022/12/27 21:28:55;;;;;;;9.95;8.95;;;-0.30;99.90;;;;;;5011650;28;20178;-70
2022/12/27 21:31:21;;;;;;;12.15;9.63;;;-0.30;99.90;;;;;;5013764;28;20279;-70
2022/12/27 21:33:47;;;;;;;12.93;8.87;;;-0.30;99.90;;;;;;5015364;28;20239;-71
2022/12/27 21:36:15;;;;;;;13.07;8.77;;;-0.30;99.90;;;;;;5015827;28;20185;-70
2022/12/27 21:38:41;;;;;;;9.07;8.00;;;-0.20;99.90;;;;;;5011414;28;20182;-70
2022/12/27 21:41:13;;;;;;;11.43;8.53;;;-0.20;99.90;;;;;;5010076;28;20270;-70
2022/12/27 21:43:38;;;;;;;9.97;7.73;;;-0.20;99.90;;;;;;5013408;28;20203;-70
2022/12/27 21:46:06;;;;;;;10.90;7.72;;;-0.20;99.90;;;;;;5014107;28;20264;-70
2022/12/27 21:48:33;;;;;;;13.32;9.48;;;-0.30;99.90;;;;;;5008404;28;20216;-70
2022/12/27 21:51:10;;;;;;;12.13;9.10;;;-0.30;99.90;;;;;;5012014;28;20201;-70
2022/12/27 21:53:36;;;;;;;11.63;9.57;;;-0.40;99.90;;;;;;5027518;28;20267;-70
2022/12/27 21:56:02;;;;;;;12.02;9.77;;;-0.40;99.90;;;;;;5014605;28;20303;-71
2022/12/27 21:58:33;;;;;;;11.82;9.15;;;-0.40;99.90;;;;;;5009898;28;20546;-70
2022/12/27 22:01:09;;;;;;;13.23;9.38;;;-0.30;99.90;;;;;;5026139;28;20208;-71
2022/12/27 22:03:36;;;;;;;11.40;8.73;;;-0.30;99.90;;;;;;5012774;28;20209;-70
2022/12/27 22:06:18;;;;;;;12.48;10.57;;;-0.30;99.90;;;;;;5010042;28;20188;-71
2022/12/27 22:08:45;;;;;;;10.47;8.77;;;-0.20;99.90;;;;;;5012860;28;20224;-70
2022/12/27 22:11:11;;;;;;;12.02;10.23;;;-0.30;99.90;;;;;;5010497;28;20239;-70
2022/12/27 22:13:38;;;;;;;11.87;10.57;;;-0.30;99.90;;;;;;5008351;28;20664;-70
2022/12/27 22:16:06;;;;;;;14.17;10.20;;;-0.30;99.90;;;;;;5011737;28;20260;-71
2022/12/27 22:18:36;;;;;;;13.67;10.30;;;-0.30;99.90;;;;;;5013836;28;20199;-71
2022/12/27 22:21:07;;;;;;;11.67;9.43;;;-0.20;99.90;;;;;;5016081;28;20761;-70
2022/12/27 22:23:42;;;;;;;12.50;9.10;;;-0.20;99.90;;;;;;5014645;28;20185;-70
2022/12/27 22:26:13;;;;;;;9.48;8.48;;;-0.20;99.90;;;;;;5011079;28;20188;-71
2022/12/27 22:28:40;;;;;;;9.75;8.70;;;-0.20;99.90;;;;;;5015470;28;20201;-71
2022/12/27 22:31:11;;;;;;;9.57;8.48;;;-0.20;99.90;;;;;;5013131;28;20865;-70
2022/12/27 22:33:37;;;;;;;9.85;8.85;;;-0.20;99.90;;;;;;5014230;28;20204;-70
2022/12/27 22:36:04;;;;;;;9.93;8.27;;;-0.30;99.90;;;;;;5011887;28;20602;-70
2022/12/27 22:38:31;;;;;;;10.83;9.40;;;-0.40;99.90;;;;;;5011000;28;20181;-70
2022/12/27 22:41:15;;;;;;;10.67;9.13;;;-0.40;99.90;;;;;;5015626;28;20283;-70
2022/12/27 22:43:42;;;;;;;11.47;8.17;;;-0.50;99.90;;;;;;5017455;28;20200;-70
2022/12/27 22:46:12;;;;;;;29.50;16.80;;;-0.40;99.90;;;;;;5011537;28;20260;-71
2022/12/27 22:48:39;;;;;;;20.63;11.73;;;-0.40;99.90;;;;;;5009501;28;20260;-70
2022/12/27 22:51:12;;;;;;;19.73;11.00;;;-0.40;99.90;;;;;;5017183;28;20199;-71
2022/12/27 22:53:38;;;;;;;15.63;10.43;;;-0.40;99.90;;;;;;5013143;28;20169;-70
2022/12/27 22:56:04;;;;;;;12.17;8.50;;;-0.40;99.90;;;;;;5016373;28;20181;-70
2022/12/27 22:58:30;;;;;;;9.50;8.60;;;-0.50;99.90;;;;;;5007988;28;20592;-71
2022/12/27 23:00:57;;;;;;;9.40;7.88;;;-0.40;99.90;;;;;;5011014;28;20197;-70
2022/12/27 23:03:22;;;;;;;9.00;8.10;;;-0.40;99.90;;;;;;5010193;28;20212;-70
2022/12/27 23:06:00;;;;;;;8.70;7.30;;;-0.40;99.90;;;;;;5014166;28;20239;-70
2022/12/27 23:08:26;;;;;;;13.17;8.23;;;-0.40;99.90;;;;;;5014336;28;20600;-71
2022/12/27 23:10:52;;;;;;;9.10;7.20;;;-0.40;99.90;;;;;;5013413;28;20235;-70
2022/12/27 23:13:21;;;;;;;10.13;8.07;;;-0.30;99.90;;;;;;5015922;28;20223;-71
2022/12/27 23:15:54;;;;;;;8.20;7.40;;;-0.30;99.90;;;;;;5013651;28;20189;-70
2022/12/27 23:18:19;;;;;;;11.63;8.00;;;-0.30;99.90;;;;;;5011907;28;20182;-70
2022/12/27 23:20:45;;;;;;;8.80;8.00;;;-0.30;99.90;;;;;;5015535;28;20738;-71
2022/12/27 23:23:11;;;;;;;10.37;7.90;;;-0.30;99.90;;;;;;5014272;28;20269;-70
2022/12/27 23:25:36;;;;;;;10.13;7.67;;;-0.30;99.90;;;;;;5010571;28;20205;-70
2022/12/27 23:28:02;;;;;;;9.00;7.20;;;-0.30;99.90;;;;;;5013143;28;20188;-70
2022/12/27 23:30:28;;;;;;;8.47;7.37;;;-0.30;99.90;;;;;;5013235;28;20213;-70
2022/12/27 23:32:53;;;;;;;9.00;7.55;;;-0.30;99.90;;;;;;5015189;28;20177;-70
2022/12/27 23:35:19;;;;;;;10.10;8.07;;;-0.40;99.90;;;;;;5014511;28;20185;-70
2022/12/27 23:37:44;;;;;;;8.83;7.93;;;-0.40;99.90;;;;;;5014692;28;20188;-70
2022/12/27 23:40:10;;;;;;;10.63;7.63;;;-0.40;99.90;;;;;;5012858;28;20671;-70
2022/12/27 23:42:36;;;;;;;9.20;7.60;;;-0.50;99.90;;;;;;5014358;28;20304;-70
2022/12/27 23:45:01;;;;;;;11.17;8.23;;;-0.50;99.90;;;;;;5012167;28;20549;-71
2022/12/27 23:47:27;;;;;;;9.23;8.30;;;-0.50;99.90;;;;;;5008103;28;20178;-70
2022/12/27 23:49:53;;;;;;;10.03;7.87;;;-0.60;99.90;;;;;;5013407;28;20192;-70
2022/12/27 23:52:19;;;;;;;11.17;7.87;;;-0.60;99.90;;;;;;5012002;28;20188;-70
2022/12/27 23:54:44;;;;;;;9.03;8.10;;;-0.50;99.90;;;;;;5013017;28;20535;-70
2022/12/27 23:57:10;;;;;;;9.17;8.27;;;-0.50;99.90;;;;;;5014061;28;20185;-70
2022/12/27 23:59:35;;;;;;;11.57;8.93;;;-0.50;99.90;;;;;;5014557;28;20185;-70
